Time;durP1;ratioP1;P1;durP2;ratioP2;P2;SDS_P1;SDS_P2;PMS_P1;PMS_P2;Temp;Humidity;BMP_temperature;BMP_pressure;BME280_temperature;BME280_humidity;BME280_pressure;Samples;Min_cycle;Max_cycle;Signal;HPM_P1;HPM_P2
2022/03/18 00:01:20;;;;;;;14.90;5.87;;;0.80;99.90;;;;;;4918885;29;20080;-88
2022/03/18 00:03:46;;;;;;;17.43;6.33;;;0.80;99.90;;;;;;4902139;29;20163;-89
2022/03/18 00:06:16;;;;;;;19.27;6.53;;;0.80;99.90;;;;;;4901500;29;20511;-88
2022/03/18 00:08:42;;;;;;;18.80;6.17;;;0.70;99.90;;;;;;4918351;29;20381;-88
2022/03/18 00:11:08;;;;;;;17.23;6.90;;;0.90;99.90;;;;;;4918366;29;20051;-88
2022/03/18 00:13:34;;;;;;;20.90;7.27;;;0.80;99.90;;;;;;4901732;29;20063;-88
2022/03/18 00:16:00;;;;;;;15.27;6.27;;;0.80;99.90;;;;;;4918250;29;20044;-88
2022/03/18 00:18:26;;;;;;;22.77;7.73;;;0.80;99.90;;;;;;4918409;29;20070;-88
2022/03/18 00:20:52;;;;;;;13.57;6.20;;;0.80;99.90;;;;;;4918768;29;20056;-88
2022/03/18 00:23:17;;;;;;;16.73;6.60;;;0.80;99.90;;;;;;4917737;29;20052;-88
2022/03/18 00:25:43;;;;;;;16.20;6.43;;;0.80;99.90;;;;;;4901284;29;20051;-88
2022/03/18 00:28:08;;;;;;;20.50;6.73;;;0.80;99.90;;;;;;4917509;29;20052;-88
2022/03/18 00:30:34;;;;;;;19.67;7.03;;;0.90;99.90;;;;;;4901733;29;20392;-88
2022/03/18 00:33:00;;;;;;;15.70;6.30;;;0.80;99.90;;;;;;4901467;29;20048;-88
2022/03/18 00:35:26;;;;;;;18.37;7.23;;;0.80;99.90;;;;;;4900340;29;20048;-88
2022/03/18 00:37:52;;;;;;;16.37;6.63;;;0.70;99.90;;;;;;4918199;29;20492;-88
2022/03/18 00:40:17;;;;;;;17.90;6.53;;;0.80;99.90;;;;;;4917424;29;20143;-88
2022/03/18 00:42:43;;;;;;;18.10;6.77;;;0.70;99.90;;;;;;4917270;29;20055;-88
2022/03/18 00:45:09;;;;;;;15.57;7.00;;;0.70;99.90;;;;;;4918137;29;20052;-88
2022/03/18 00:53:04;;;;;;;16.80;6.80;;;0.80;99.90;;;;;;4917670;29;20040;-88
2022/03/18 00:55:30;;;;;;;18.17;6.90;;;0.80;99.90;;;;;;4918108;29;20540;-88
2022/03/18 00:57:55;;;;;;;16.60;6.30;;;0.70;99.90;;;;;;4900251;29;20036;-88
2022/03/18 01:00:21;;;;;;;15.57;6.43;;;0.70;99.90;;;;;;4900521;29;20044;-88
2022/03/18 01:02:47;;;;;;;19.87;7.07;;;0.70;99.90;;;;;;4917855;29;20040;-88
2022/03/18 01:05:12;;;;;;;16.67;6.97;;;0.90;99.90;;;;;;4899959;29;20112;-88
2022/03/18 01:07:38;;;;;;;15.33;6.70;;;0.70;99.90;;;;;;4900774;29;20048;-88
2022/03/18 01:10:04;;;;;;;18.40;7.30;;;0.90;99.90;;;;;;4900293;29;20500;-88
2022/03/18 01:12:30;;;;;;;18.63;7.33;;;0.60;99.90;;;;;;4916888;29;20553;-88
2022/03/18 01:14:56;;;;;;;19.47;7.43;;;0.60;99.90;;;;;;4917674;29;20044;-88
2022/03/18 01:17:21;;;;;;;17.97;7.37;;;0.70;99.90;;;;;;4916654;29;20044;-88
2022/03/18 01:19:47;;;;;;;19.83;8.10;;;0.60;99.90;;;;;;4900329;29;20048;-89
2022/03/18 01:22:13;;;;;;;19.73;7.50;;;0.60;99.90;;;;;;4899938;29;20412;-88
2022/03/18 01:24:38;;;;;;;15.87;7.20;;;0.60;99.90;;;;;;4899638;29;20127;-88
2022/03/18 01:27:05;;;;;;;18.90;7.43;;;0.60;99.90;;;;;;4916735;29;20048;-88
2022/03/18 01:29:31;;;;;;;19.20;7.57;;;0.50;99.90;;;;;;4917640;29;20044;-88
2022/03/18 01:31:57;;;;;;;17.07;7.77;;;0.70;99.90;;;;;;4899659;29;20504;-88
2022/03/18 01:34:23;;;;;;;16.67;7.80;;;0.50;99.90;;;;;;4916913;29;20056;-88
2022/03/18 01:36:49;;;;;;;21.13;7.80;;;0.50;99.90;;;;;;4899907;29;20048;-88
2022/03/18 01:39:15;;;;;;;17.23;7.30;;;0.50;99.90;;;;;;4916420;29;20052;-88
2022/03/18 01:41:41;;;;;;;20.30;7.80;;;0.60;99.90;;;;;;4899972;29;20044;-88
2022/03/18 01:44:11;;;;;;;17.77;7.90;;;0.70;99.90;;;;;;4900074;29;20036;-88
2022/03/18 01:46:37;;;;;;;19.80;7.70;;;0.50;99.90;;;;;;4899571;29;20048;-89
2022/03/18 01:49:04;;;;;;;20.93;7.90;;;0.50;99.90;;;;;;4917052;29;20051;-88
2022/03/18 01:51:30;;;;;;;21.10;8.40;;;0.40;99.90;;;;;;4915989;29;20075;-88
2022/03/18 01:56:40;;;;;;;17.93;7.80;;;0.40;99.90;;;;;;4902296;29;20555;-88
2022/03/18 01:59:06;;;;;;;23.27;8.73;;;0.40;99.90;;;;;;4899582;29;20156;-88
2022/03/18 02:01:32;;;;;;;19.27;8.00;;;0.40;99.90;;;;;;4922685;23;20066;-88
2022/03/18 02:03:58;;;;;;;19.80;8.60;;;0.30;99.90;;;;;;4919563;29;20048;-89
2022/03/18 02:06:23;;;;;;;18.43;8.57;;;0.30;99.90;;;;;;4917888;29;20111;-89
2022/03/18 02:08:49;;;;;;;18.23;8.90;;;0.30;99.90;;;;;;4916758;29;20075;-88
2022/03/18 02:11:15;;;;;;;23.57;8.77;;;0.30;99.90;;;;;;4916555;29;20433;-88
2022/03/18 02:13:40;;;;;;;19.93;9.00;;;0.30;99.90;;;;;;4914385;29;20476;-88
2022/03/18 02:16:06;;;;;;;22.13;8.93;;;0.30;99.90;;;;;;4915478;29;20043;-88
2022/03/18 02:18:31;;;;;;;23.73;8.77;;;0.40;99.90;;;;;;4915218;29;20064;-88
2022/03/18 02:20:57;;;;;;;19.43;8.43;;;0.30;99.90;;;;;;4914162;29;20044;-88
2022/03/18 02:23:22;;;;;;;17.93;8.70;;;0.40;99.90;;;;;;4914915;29;20052;-88
2022/03/18 02:25:48;;;;;;;19.43;9.13;;;0.20;99.90;;;;;;4915275;29;20071;-88
2022/03/18 02:28:14;;;;;;;19.00;9.10;;;0.30;99.90;;;;;;4914115;29;20051;-88
2022/03/18 02:30:39;;;;;;;21.60;10.00;;;0.30;99.90;;;;;;4916606;29;20102;-89
2022/03/18 02:33:05;;;;;;;22.43;10.60;;;0.20;99.90;;;;;;4914806;29;20051;-88
2022/03/18 02:35:32;;;;;;;23.63;10.23;;;0.20;99.90;;;;;;4916014;29;20044;-88
2022/03/18 02:37:59;;;;;;;23.03;10.00;;;0.30;99.90;;;;;;4915281;29;20092;-89
2022/03/18 02:40:26;;;;;;;22.33;10.73;;;0.30;99.90;;;;;;4914585;29;20052;-88
2022/03/18 02:42:51;;;;;;;22.13;9.93;;;0.30;99.90;;;;;;4914670;29;20051;-88
2022/03/18 02:45:17;;;;;;;21.17;10.57;;;0.30;99.90;;;;;;4914630;29;20492;-88
2022/03/18 02:47:42;;;;;;;23.87;10.43;;;0.20;99.90;;;;;;4915163;29;20048;-88
2022/03/18 02:50:09;;;;;;;22.57;10.93;;;0.30;99.90;;;;;;4915539;29;20488;-88
2022/03/18 02:52:35;;;;;;;21.83;10.30;;;0.20;99.90;;;;;;4917036;29;20049;-88
2022/03/18 02:55:01;;;;;;;22.30;11.23;;;0.20;99.90;;;;;;4917908;29;20059;-88
2022/03/18 02:57:26;;;;;;;23.03;10.20;;;0.20;99.90;;;;;;4915965;29;20139;-88
2022/03/18 02:59:52;;;;;;;22.10;10.10;;;0.20;99.90;;;;;;4915012;29;20556;-87
2022/03/18 03:02:17;;;;;;;21.37;10.00;;;0.20;99.90;;;;;;4915793;29;20048;-89
2022/03/18 03:10:12;;;;;;;;;;;0.10;99.90;;;;;;4917882;29;20044;-89
2022/03/18 03:12:41;;;;;;;18.20;9.23;;;0.10;99.90;;;;;;4919617;29;19919;-89
2022/03/18 03:15:08;;;;;;;17.90;9.47;;;0.10;99.90;;;;;;4918099;29;20055;-89
2022/03/18 03:17:34;;;;;;;19.20;9.97;;;0.00;99.90;;;;;;4917902;29;20044;-89
2022/03/18 03:19:59;;;;;;;26.37;9.87;;;0.00;99.90;;;;;;4919680;29;20040;-89
2022/03/18 03:22:25;;;;;;;20.27;9.63;;;0.00;99.90;;;;;;4917938;29;20054;-89
2022/03/18 03:24:51;;;;;;;20.33;9.67;;;1.00;99.90;;;;;;4917629;29;20408;-88
2022/03/18 03:27:17;;;;;;;17.63;9.13;;;-0.10;99.90;;;;;;4919104;29;20083;-89
2022/03/18 03:29:43;;;;;;;19.63;9.20;;;-0.10;99.90;;;;;;4918244;29;20052;-88
2022/03/18 03:32:08;;;;;;;24.90;10.27;;;-0.20;99.90;;;;;;4917121;29;20051;-89
2022/03/18 03:34:35;;;;;;;19.23;9.77;;;-0.20;99.90;;;;;;4918183;29;20094;-88
2022/03/18 03:37:00;;;;;;;17.27;9.83;;;-0.20;99.90;;;;;;4918127;29;20052;-88
2022/03/18 03:39:26;;;;;;;24.13;11.10;;;-0.20;99.90;;;;;;4918380;29;20460;-88
2022/03/18 03:41:52;;;;;;;21.60;10.03;;;-0.10;99.90;;;;;;4917772;29;20468;-88
2022/03/18 03:44:17;;;;;;;26.53;11.07;;;-0.20;99.90;;;;;;4922242;29;20426;-88
2022/03/18 03:46:43;;;;;;;21.47;11.13;;;0.00;99.90;;;;;;4918755;29;20052;-89
2022/03/18 03:49:09;;;;;;;21.70;10.00;;;-0.10;99.90;;;;;;4917740;29;20382;-88
2022/03/18 03:51:35;;;;;;;25.23;11.03;;;-0.10;99.90;;;;;;4919839;29;20070;-89
2022/03/18 03:54:00;;;;;;;30.10;12.07;;;0.40;99.90;;;;;;4919564;29;20579;-89
2022/03/18 03:56:26;;;;;;;30.60;13.33;;;0.50;99.90;;;;;;4918725;29;20127;-88
2022/03/18 03:58:52;;;;;;;25.03;13.73;;;0.50;99.90;;;;;;4917985;29;20072;-89
2022/03/18 04:01:17;;;;;;;31.47;13.37;;;0.60;99.90;;;;;;4917910;29;20496;-88
2022/03/18 04:03:45;;;;;;;26.43;13.30;;;0.60;99.90;;;;;;4917701;29;20386;-89
2022/03/18 04:06:10;;;;;;;28.17;12.73;;;0.60;99.90;;;;;;4916673;29;20052;-88
2022/03/18 04:08:36;;;;;;;23.70;12.03;;;0.60;99.90;;;;;;4917467;29;20047;-89
2022/03/18 04:11:02;;;;;;;26.93;11.70;;;0.60;99.90;;;;;;4918623;29;20040;-88
2022/03/18 04:13:28;;;;;;;25.30;11.73;;;0.60;99.90;;;;;;4918250;29;20507;-88
2022/03/18 04:15:53;;;;;;;23.13;11.37;;;0.50;99.90;;;;;;4917167;29;20050;-88
2022/03/18 04:18:19;;;;;;;24.23;10.73;;;0.50;99.90;;;;;;4918543;29;20044;-89
2022/03/18 04:20:45;;;;;;;24.40;11.17;;;0.50;99.90;;;;;;4916571;29;20048;-88
2022/03/18 04:23:10;;;;;;;25.00;10.90;;;0.80;99.90;;;;;;4918682;29;20055;-88
2022/03/18 04:25:36;;;;;;;23.90;11.47;;;0.80;99.90;;;;;;4918732;29;20488;-89
2022/03/18 04:28:02;;;;;;;24.10;11.37;;;1.20;99.90;;;;;;4916278;29;20044;-88
2022/03/18 04:30:27;;;;;;;22.17;10.67;;;0.70;99.90;;;;;;4918501;29;20047;-88
2022/03/18 04:32:53;;;;;;;21.83;11.33;;;0.60;99.90;;;;;;4916976;29;20175;-88
2022/03/18 04:35:19;;;;;;;28.37;12.23;;;0.70;99.90;;;;;;4916079;29;20389;-89
2022/03/18 04:37:45;;;;;;;23.10;11.17;;;0.50;99.90;;;;;;4916496;29;20059;-87
2022/03/18 04:40:13;;;;;;;24.67;11.33;;;0.50;99.90;;;;;;4918899;29;20055;-89
2022/03/18 04:42:40;;;;;;;28.17;11.10;;;0.40;99.90;;;;;;4922315;29;20099;-88
2022/03/18 04:45:06;;;;;;;28.47;11.37;;;0.30;99.90;;;;;;4918071;29;20048;-88
2022/03/18 04:47:33;;;;;;;29.60;11.67;;;0.30;99.90;;;;;;4918357;29;20052;-88
2022/03/18 04:50:00;;;;;;;24.77;11.20;;;0.30;99.90;;;;;;4917459;29;20484;-88
2022/03/18 04:52:26;;;;;;;25.83;11.87;;;0.30;99.90;;;;;;4917698;29;20056;-88
2022/03/18 04:54:52;;;;;;;25.50;10.77;;;0.20;99.90;;;;;;4916679;29;20104;-89
2022/03/18 04:57:20;;;;;;;25.50;11.33;;;0.20;99.90;;;;;;4916850;29;20049;-88
2022/03/18 04:59:47;;;;;;;25.23;11.33;;;0.30;99.90;;;;;;4916984;29;20515;-88
2022/03/18 05:02:15;;;;;;;26.67;11.93;;;0.10;99.90;;;;;;4917166;29;20135;-88
2022/03/18 05:04:43;;;;;;;21.97;10.63;;;0.10;99.90;;;;;;4916170;29;20048;-87
2022/03/18 05:07:09;;;;;;;23.80;10.57;;;0.10;99.90;;;;;;4915654;29;20108;-88
2022/03/18 05:09:34;;;;;;;19.47;10.97;;;0.80;99.90;;;;;;4917092;29;20063;-88
2022/03/18 05:12:00;;;;;;;21.57;10.50;;;0.00;99.90;;;;;;4917943;29;20508;-88
2022/03/18 05:14:26;;;;;;;25.97;11.20;;;0.00;99.90;;;;;;4916485;29;20511;-88
2022/03/18 05:16:52;;;;;;;26.50;11.87;;;0.00;99.90;;;;;;4917230;29;20054;-88
2022/03/18 05:19:17;;;;;;;23.40;11.10;;;0.00;99.90;;;;;;4917336;29;20072;-88
2022/03/18 05:21:43;;;;;;;23.13;10.93;;;0.00;99.90;;;;;;4917675;29;20048;-88
2022/03/18 05:24:09;;;;;;;26.43;11.43;;;0.00;99.90;;;;;;4915392;29;20045;-88
2022/03/18 05:26:37;;;;;;;24.07;11.83;;;0.00;99.90;;;;;;4915212;29;20047;-88
2022/03/18 05:29:03;;;;;;;28.20;11.37;;;0.00;99.90;;;;;;4916280;29;20056;-88
2022/03/18 05:31:31;;;;;;;26.10;11.63;;;0.00;99.90;;;;;;4916854;29;20063;-89
2022/03/18 05:33:57;;;;;;;24.00;11.43;;;0.00;99.90;;;;;;4918240;29;20052;-89
2022/03/18 05:36:23;;;;;;;27.17;11.47;;;-0.10;99.90;;;;;;4917196;29;20048;-88
2022/03/18 05:38:48;;;;;;;26.93;12.33;;;-0.10;99.90;;;;;;4916728;29;20074;-89
2022/03/18 05:41:14;;;;;;;23.23;12.20;;;-0.10;99.90;;;;;;4919292;29;20068;-88
2022/03/18 05:43:40;;;;;;;26.10;12.20;;;0.00;99.90;;;;;;4915807;29;20058;-88
2022/03/18 05:46:07;;;;;;;25.17;12.00;;;-0.20;99.90;;;;;;4916563;29;20036;-89
2022/03/18 05:48:33;;;;;;;23.60;11.93;;;-0.20;99.90;;;;;;4916812;29;20048;-88
2022/03/18 05:51:00;;;;;;;23.73;11.93;;;-0.30;99.90;;;;;;4916342;29;20488;-89
2022/03/18 05:53:26;;;;;;;24.93;12.33;;;-0.30;99.90;;;;;;4916631;29;20048;-89
2022/03/18 05:58:36;;;;;;;22.23;11.13;;;-0.30;99.90;;;;;;4916314;29;20048;-91
2022/03/18 06:02:11;;;;;;;20.63;11.60;;;-0.30;99.90;;;;;;4917801;29;20060;-96
2022/03/18 06:11:48;;;;;;;23.83;12.00;;;0.90;99.90;;;;;;4831351;29;20049;-92
2022/03/18 06:14:16;;;;;;;23.90;11.53;;;0.00;99.90;;;;;;4842180;29;20430;-96
2022/03/18 06:16:49;;;;;;;25.07;12.33;;;-0.60;99.90;;;;;;4834327;29;20042;-95
2022/03/18 06:19:17;;;;;;;20.70;11.52;;;-0.30;99.90;;;;;;4842770;29;20555;-91
2022/03/18 06:21:43;;;;;;;25.43;11.57;;;-0.20;99.90;;;;;;4844656;29;20098;-94
2022/03/18 06:24:12;;;;;;;22.07;12.17;;;-0.50;99.90;;;;;;4844809;29;20053;-93
2022/03/18 06:26:44;;;;;;;26.07;12.17;;;-0.50;99.90;;;;;;4836435;29;20056;-92
2022/03/18 06:29:16;;;;;;;21.70;12.23;;;-0.40;99.90;;;;;;4859771;29;20057;-92
2022/03/18 06:31:51;;;;;;;21.33;11.97;;;-0.10;99.90;;;;;;4843315;29;20050;-96
2022/03/18 06:34:30;;;;;;;20.33;11.10;;;-0.40;99.90;;;;;;4836039;29;20091;-96
2022/03/18 06:37:05;;;;;;;24.90;11.50;;;0.40;99.90;;;;;;4827279;29;20053;-95
2022/03/18 06:39:39;;;;;;;24.20;11.73;;;-0.20;99.90;;;;;;4847285;29;20120;-94
2022/03/18 06:42:11;;;;;;;25.10;12.73;;;-0.40;99.90;;;;;;4830457;29;20053;-95
2022/03/18 06:44:44;;;;;;;28.50;13.30;;;1.10;99.90;;;;;;4847134;29;20106;-95
2022/03/18 06:47:20;;;;;;;27.23;13.23;;;0.20;99.90;;;;;;4830667;29;20501;-94
2022/03/18 06:49:51;;;;;;;25.30;13.37;;;1.80;99.90;;;;;;4846856;29;20050;-95
2022/03/18 06:52:26;;;;;;;28.93;13.17;;;0.10;99.90;;;;;;4829879;29;20429;-94
2022/03/18 06:55:02;;;;;;;24.20;14.07;;;1.10;99.90;;;;;;4846546;29;20054;-93
2022/03/18 06:57:42;;;;;;;30.80;14.10;;;0.20;99.90;;;;;;4846743;29;20050;-94
2022/03/18 07:00:11;;;;;;;28.10;14.40;;;1.00;99.90;;;;;;4844974;29;20046;-94
2022/03/18 07:02:40;;;;;;;25.47;14.90;;;0.80;99.90;;;;;;4846091;29;20056;-94
2022/03/18 07:05:16;;;;;;;27.37;15.30;;;0.60;99.90;;;;;;4846052;29;20045;-94
2022/03/18 07:07:42;;;;;;;29.97;15.87;;;0.90;99.90;;;;;;4829980;29;20480;-94
2022/03/18 07:10:35;;;;;;;32.27;16.03;;;0.90;99.90;;;;;;4869076;23;20063;-91
2022/03/18 07:13:09;;;;;;;32.13;16.60;;;1.00;99.90;;;;;;4916165;23;20075;-90
2022/03/18 07:19:15;;;;;;;33.77;16.37;;;1.80;99.90;;;;;;4907328;29;20512;-95
2022/03/18 07:21:50;;;;;;;30.70;17.37;;;0.60;99.90;;;;;;4933643;29;20044;-95
2022/03/18 07:24:28;;;;;;;33.33;17.30;;;2.10;99.90;;;;;;4933986;29;20063;-94
2022/03/18 07:27:03;;;;;;;28.03;15.67;;;1.70;99.90;;;;;;4908314;29;20054;-96
2022/03/18 07:29:36;;;;;;;31.47;14.97;;;2.30;99.90;;;;;;4932509;23;20481;-95
2022/03/18 07:34:43;;;;;;;29.73;15.10;;;2.50;99.90;;;;;;5043033;23;20087;-95
2022/03/18 07:40:43;;;;;;;23.27;12.13;;;2.30;99.90;;;;;;4929838;23;20064;-95
2022/03/18 07:43:15;;;;;;;27.03;13.40;;;2.30;99.90;;;;;;4911923;29;20507;-95
2022/03/18 07:46:49;;;;;;;25.43;12.77;;;3.00;99.90;;;;;;4932368;23;20136;-95
2022/03/18 07:50:05;;;;;;;24.77;12.63;;;4.50;99.90;;;;;;4903111;29;20170;-94
2022/03/18 07:52:39;;;;;;;25.17;11.13;;;3.60;99.90;;;;;;4922669;29;20463;-94
2022/03/18 07:55:14;;;;;;;21.70;10.40;;;3.60;99.90;;;;;;4924671;29;20055;-94
2022/03/18 07:58:07;;;;;;;22.83;9.93;;;3.60;99.90;;;;;;4926873;29;20039;-93
2022/03/18 08:00:43;;;;;;;24.33;11.20;;;3.80;99.90;;;;;;4889690;29;20112;-95
2022/03/18 08:06:04;;;;;;;21.87;10.67;;;4.00;99.90;;;;;;4930790;23;20052;-95
2022/03/18 08:08:55;;;;;;;22.77;10.43;;;3.70;99.90;;;;;;4919790;29;20305;-92
2022/03/18 08:11:33;;;;;;;23.20;10.73;;;4.30;99.90;;;;;;4981761;23;20048;-92
2022/03/18 08:14:24;;;;;;;24.87;11.53;;;4.30;99.90;;;;;;4928334;29;20048;-90
2022/03/18 08:20:53;;;;;;;21.37;11.23;;;4.70;99.90;;;;;;4936329;29;20047;-95
2022/03/18 08:23:26;;;;;;;24.37;11.67;;;6.10;99.90;;;;;;4913794;29;20408;-94
2022/03/18 08:25:52;;;;;;;22.42;10.82;;;4.90;99.90;;;;;;4956920;23;20066;-95
2022/03/18 08:29:09;;;;;;;23.57;11.80;;;5.50;99.90;;;;;;4929970;29;20052;-95
2022/03/18 08:31:36;;;;;;;22.57;11.47;;;5.60;99.90;;;;;;4918696;29;20048;-96
2022/03/18 08:34:08;;;;;;;28.70;13.67;;;5.40;99.90;;;;;;4914566;29;20055;-94
2022/03/18 08:36:37;;;;;;;21.23;11.17;;;4.80;99.90;;;;;;4913526;29;20052;-95
2022/03/18 08:39:09;;;;;;;23.87;12.20;;;5.90;99.90;;;;;;4929334;29;20103;-92
2022/03/18 08:41:44;;;;;;;23.33;12.63;;;5.60;99.90;;;;;;4914255;29;20107;-94
2022/03/18 08:44:16;;;;;;;22.67;12.10;;;5.90;99.90;;;;;;4905298;29;20044;-94
2022/03/18 08:46:51;;;;;;;24.50;12.20;;;7.30;99.90;;;;;;4912349;29;20053;-93
2022/03/18 08:52:09;;;;;;;21.50;12.23;;;6.40;99.90;;;;;;4947622;23;20056;-95
2022/03/18 08:54:48;;;;;;;26.67;13.00;;;6.30;99.90;;;;;;4913503;29;20131;-94
2022/03/18 08:57:19;;;;;;;29.20;13.47;;;6.30;99.90;;;;;;4928644;29;20103;-94
2022/03/18 09:00:32;;;;;;;24.57;12.90;;;6.60;99.90;;;;;;4934484;29;20036;-95
2022/03/18 09:03:47;;;;;;;24.53;12.40;;;6.50;99.90;;;;;;4898657;29;20056;-95
2022/03/18 09:09:23;;;;;;;24.40;12.27;;;7.30;99.90;;;;;;4936905;23;20048;-95
2022/03/18 09:12:04;;;;;;;23.50;12.67;;;7.50;99.90;;;;;;4931845;29;20059;-95
2022/03/18 09:14:38;;;;;;;23.63;12.50;;;7.70;99.90;;;;;;4894981;29;20083;-95
2022/03/18 09:20:53;;;;;;;;;;;;;;;;;;;;;
2022/03/18 09:23:43;;;;;;;23.48;12.40;;;8.00;99.90;;;;;;4861948;29;20060;-95
2022/03/18 09:26:18;;;;;;;;;;;8.10;99.90;;;;;;4875739;23;20062;-95
2022/03/18 09:29:05;;;;;;;;;;;7.80;99.90;;;;;;4910053;29;20364;-95
2022/03/18 09:31:37;;;;;;;24.92;12.30;;;8.60;99.90;;;;;;4888023;29;19924;-96
2022/03/18 09:34:10;;;;;;;23.77;11.75;;;8.60;99.90;;;;;;4899255;23;20080;-96
2022/03/18 09:37:27;;;;;;;23.70;12.65;;;8.80;99.90;;;;;;4915402;23;20048;-96
2022/03/18 09:39:53;;;;;;;25.27;12.63;;;8.90;99.90;;;;;;4906382;29;20049;-94
2022/03/18 09:43:05;;;;;;;22.75;11.85;;;9.00;99.90;;;;;;4887117;29;20413;-94
2022/03/18 09:45:39;;;;;;;22.23;12.27;;;9.10;99.90;;;;;;4928430;23;20147;-96
2022/03/18 09:49:16;;;;;;;22.15;12.50;;;9.40;99.90;;;;;;4909700;29;20088;-96
2022/03/18 09:56:14;;;;;;;23.58;13.10;;;9.00;99.90;;;;;;4920154;29;20076;-95
2022/03/18 10:05:37;;;;;;;25.15;12.95;;;10.00;99.90;;;;;;4945093;23;20056;-92
2022/03/18 10:08:12;;;;;;;23.00;13.05;;;10.70;99.90;;;;;;4894130;29;20045;-91
2022/03/18 10:10:47;;;;;;;25.27;12.50;;;11.40;99.90;;;;;;4879577;29;20047;-94
2022/03/18 10:14:04;;;;;;;21.45;11.75;;;10.10;99.90;;;;;;4875291;23;20051;-92
2022/03/18 10:17:21;;;;;;;22.13;11.30;;;10.40;99.90;;;;;;4898836;29;20052;-92
2022/03/18 10:20:38;;;;;;;20.85;11.50;;;10.70;99.90;;;;;;4900326;29;20469;-91
2022/03/18 10:26:33;;;;;;;25.75;11.73;;;11.10;99.90;;;;;;4898192;29;20098;-91
2022/03/18 10:29:11;;;;;;;;;;;10.90;99.90;;;;;;4924088;23;20528;-89
2022/03/18 10:31:45;;;;;;;20.77;12.18;;;11.10;99.90;;;;;;4899981;29;19934;-90
2022/03/18 10:37:08;;;;;;;22.88;12.80;;;10.90;99.90;;;;;;4900238;29;20058;-91
2022/03/18 10:39:51;;;;;;;24.88;12.70;;;11.80;99.90;;;;;;4891903;29;20044;-94
2022/03/18 10:42:34;;;;;;;21.65;12.30;;;11.70;99.90;;;;;;4908843;23;20045;-92
2022/03/18 10:45:26;;;;;;;21.90;11.65;;;10.30;99.90;;;;;;4892381;29;20044;-92
2022/03/18 10:48:30;;;;;;;23.27;11.80;;;12.30;99.90;;;;;;4889907;29;20051;-91
2022/03/18 10:51:15;;;;;;;23.02;12.15;;;12.30;99.90;;;;;;4987621;23;20055;-92
2022/03/18 10:53:57;;;;;;;21.38;11.90;;;12.70;99.90;;;;;;4890530;29;20414;-91
2022/03/18 10:56:26;;;;;;;19.38;10.77;;;12.30;99.90;;;;;;4902180;29;20453;-91
2022/03/18 10:59:07;;;;;;;20.73;10.38;;;13.10;99.90;;;;;;4908173;29;20032;-91
2022/03/18 11:01:51;;;;;;;21.38;10.77;;;13.10;99.90;;;;;;4904834;29;20036;-91
2022/03/18 11:04:18;;;;;;;18.55;10.00;;;14.60;99.90;;;;;;4911870;29;20044;-91
2022/03/18 11:12:47;;;;;;;18.58;10.48;;;13.00;99.90;;;;;;4920560;29;20048;-93
2022/03/18 11:15:22;;;;;;;16.13;9.70;;;13.80;99.90;;;;;;4899158;29;20112;-90
2022/03/18 11:17:48;;;;;;;16.95;9.52;;;14.10;99.90;;;;;;4895712;29;20069;-94
2022/03/18 11:20:27;;;;;;;17.27;9.35;;;14.20;99.90;;;;;;4901195;29;20048;-93
2022/03/18 11:23:02;;;;;;;18.38;9.73;;;14.70;99.90;;;;;;4916729;29;20190;-93
2022/03/18 11:25:44;;;;;;;;;;;;;;;;;;;;;
2022/03/18 11:28:30;;;;;;;18.83;9.40;;;15.30;99.90;;;;;;4846482;29;20506;-93
2022/03/18 11:31:07;;;;;;;16.63;9.13;;;14.60;99.90;;;;;;4846214;29;20057;-93
2022/03/18 11:33:41;;;;;;;16.60;8.45;;;14.90;99.90;;;;;;4846556;29;20140;-94
2022/03/18 11:36:09;;;;;;;18.63;8.80;;;15.30;99.90;;;;;;4847201;29;20057;-95
2022/03/18 11:39:06;;;;;;;15.70;8.05;;;14.90;99.90;;;;;;4927390;23;20067;-91
2022/03/18 11:41:47;;;;;;;17.75;8.32;;;15.20;99.90;;;;;;4902712;29;20080;-94
2022/03/18 11:47:21;;;;;;;18.35;8.38;;;15.30;99.90;;;;;;4942645;23;20060;-95
2022/03/18 11:54:09;;;;;;;16.88;8.85;;;15.60;99.90;;;;;;4855815;29;20136;-95
2022/03/18 11:59:50;;;;;;;13.98;6.70;;;14.30;99.90;;;;;;4868572;29;20049;-96
2022/03/18 12:03:01;;;;;;;15.02;7.00;;;16.10;99.90;;;;;;5178175;23;20143;-93
2022/03/18 12:09:22;;;;;;;13.75;6.57;;;16.00;99.90;;;;;;4857148;29;20104;-93
2022/03/18 12:12:57;;;;;;;13.20;6.40;;;16.90;99.90;;;;;;4882285;23;20026;-92
2022/03/18 12:22:55;;;;;;;14.63;6.60;;;16.40;99.90;;;;;;5206852;23;20051;-93
2022/03/18 12:55:03;;;;;;;12.68;4.75;;;16.90;99.90;;;;;;4863939;23;20178;31
2022/03/18 12:57:57;;;;;;;13.35;5.50;;;16.80;99.90;;;;;;5111903;23;20076;-91
2022/03/18 13:01:03;;;;;;;12.15;5.60;;;16.10;99.90;;;;;;4916092;29;20057;-89
2022/03/18 13:03:50;;;;;;;14.02;5.68;;;16.80;99.90;;;;;;4902598;29;20080;-89
2022/03/18 13:09:09;;;;;;;12.23;5.45;;;17.20;99.90;;;;;;4921210;23;20063;-90
2022/03/18 13:11:55;;;;;;;12.35;5.45;;;17.30;99.90;;;;;;4917816;29;20194;-88
2022/03/18 13:14:44;;;;;;;11.93;5.53;;;18.00;99.90;;;;;;4908130;23;20514;-88
2022/03/18 13:23:29;;;;;;;17.35;6.20;;;16.50;99.90;;;;;;4922869;23;20056;-83
2022/03/18 13:26:13;;;;;;;14.45;5.88;;;16.10;99.90;;;;;;4901354;29;20063;-93
2022/03/18 13:36:24;;;;;;;13.80;5.40;;;15.30;99.90;;;;;;4935190;29;20054;-91
2022/03/18 13:38:59;;;;;;;12.00;4.55;;;15.20;99.90;;;;;;4901116;29;20039;-91
2022/03/18 13:42:10;;;;;;;12.93;4.55;;;14.70;99.90;;;;;;4900323;29;20056;-92
2022/03/18 13:45:02;;;;;;;12.82;4.90;;;16.50;99.90;;;;;;4914676;29;20055;-92
2022/03/18 13:48:08;;;;;;;12.65;5.00;;;16.50;99.90;;;;;;4916134;29;20080;-93
2022/03/18 13:50:48;;;;;;;14.90;5.78;;;17.20;99.90;;;;;;4930918;23;20148;-93
2022/03/18 14:00:40;;;;;;;12.60;4.25;;;16.40;99.90;;;;;;4871429;29;20055;-90
2022/03/18 14:03:53;;;;;;;11.82;4.70;;;16.40;99.90;;;;;;4950059;23;20030;-91
2022/03/18 14:07:09;;;;;;;11.63;4.40;;;16.20;99.90;;;;;;4910539;29;20483;-90
2022/03/18 14:10:04;;;;;;;;;;;;;;;;;;;;;
2022/03/18 14:13:06;;;;;;;12.48;4.63;;;16.00;99.90;;;;;;4861522;29;20056;-91
2022/03/18 14:15:49;;;;;;;10.95;3.90;;;15.70;99.90;;;;;;4902071;29;20056;-94
2022/03/18 14:18:59;;;;;;;10.82;4.63;;;15.30;99.90;;;;;;4900607;29;20067;-93
2022/03/18 14:25:09;;;;;;;12.23;4.20;;;15.80;99.90;;;;;;4798929;29;20056;-90
2022/03/18 14:27:39;;;;;;;12.50;4.20;;;16.00;99.90;;;;;;4807358;29;20064;-94
2022/03/18 14:31:13;;;;;;;11.32;4.63;;;16.60;99.90;;;;;;4805095;29;20046;-94
2022/03/18 14:37:12;;;;;;;13.40;4.57;;;15.00;99.90;;;;;;4844925;29;20099;-93
2022/03/18 14:39:47;;;;;;;;;;;15.10;99.90;;;;;;4886140;29;20076;-94
2022/03/18 14:48:08;;;;;;;12.75;4.25;;;16.00;99.90;;;;;;5145855;23;20064;-94
2022/03/18 14:58:34;;;;;;;;;;;;;;;;;;;;;
2022/03/18 15:01:23;;;;;;;;;;;16.30;99.90;;;;;;4829786;29;20136;-93
2022/03/18 15:11:03;;;;;;;14.00;6.30;;;16.00;99.90;;;;;;4921696;29;20115;-95
2022/03/18 15:41:04;;;;;;;12.52;4.35;;;16.80;99.90;;;;;;4896964;29;20098;-95
2022/03/18 15:53:56;;;;;;;17.23;5.95;;;16.40;99.90;;;;;;5548003;23;20034;31
2022/03/18 15:56:31;;;;;;;12.18;5.35;;;17.00;99.90;;;;;;4892309;29;20076;-96
2022/03/18 15:58:56;;;;;;;12.43;4.85;;;16.90;99.90;;;;;;4908179;29;20059;-94
2022/03/18 16:04:29;;;;;;;14.10;5.65;;;17.00;99.90;;;;;;4964254;23;20075;-95
2022/03/18 16:13:37;;;;;;;12.35;5.78;;;16.10;99.90;;;;;;4924799;29;20096;-94
2022/03/18 16:16:06;;;;;;;12.90;5.60;;;15.90;99.90;;;;;;4907399;29;20052;-96
2022/03/18 16:19:13;;;;;;;14.38;5.57;;;15.80;99.90;;;;;;4922814;29;20369;-95
2022/03/18 16:22:29;;;;;;;12.38;5.18;;;14.20;99.90;;;;;;4830560;29;20058;-96
2022/03/18 16:30:50;;;;;;;14.25;5.22;;;13.80;99.90;;;;;;4939471;23;20162;-96
2022/03/18 16:33:22;;;;;;;14.18;5.43;;;13.70;99.90;;;;;;4909449;29;20048;-96
2022/03/18 16:35:56;;;;;;;18.33;8.35;;;14.40;99.90;;;;;;4928781;23;20106;-95
2022/03/18 16:44:02;;;;;;;15.02;6.22;;;13.20;99.90;;;;;;4934459;23;20063;-93
2022/03/18 16:49:31;;;;;;;18.02;6.85;;;13.00;99.90;;;;;;4884050;29;20105;-92
2022/03/18 16:52:06;;;;;;;17.33;6.85;;;13.00;99.90;;;;;;4881949;29;20117;-91
2022/03/18 16:54:32;;;;;;;16.60;6.78;;;12.60;99.90;;;;;;4864763;29;20049;-94
2022/03/18 16:57:38;;;;;;;15.50;7.20;;;13.40;99.90;;;;;;4917758;23;20115;-91
2022/03/18 17:03:42;;;;;;;17.40;6.43;;;12.90;99.90;;;;;;4945250;23;20060;-94
2022/03/18 17:06:09;;;;;;;18.05;6.47;;;13.00;99.90;;;;;;4904860;29;20139;-94
2022/03/18 17:08:41;;;;;;;17.52;5.95;;;13.50;99.90;;;;;;4911042;23;20044;-93
2022/03/18 17:11:07;;;;;;;20.58;5.53;;;12.10;99.90;;;;;;4925260;29;20040;-95
2022/03/18 17:13:40;;;;;;;18.80;5.82;;;12.70;99.90;;;;;;4919330;23;20534;-95
2022/03/18 17:16:17;;;;;;;15.77;5.85;;;12.50;99.90;;;;;;4915233;29;20407;-92
2022/03/18 17:19:01;;;;;;;18.05;5.75;;;12.30;99.90;;;;;;4915568;29;20060;-92
2022/03/18 17:25:58;;;;;;;17.38;5.63;;;12.10;99.90;;;;;;4896649;29;20048;-93